Time;durP1;ratioP1;P1;durP2;ratioP2;P2;SDS_P1;SDS_P2;PMS_P1;PMS_P2;Temp;Humidity;BMP_temperature;BMP_pressure;BME280_temperature;BME280_humidity;BME280_pressure;Samples;Min_cycle;Max_cycle;Signal;HPM_P1;HPM_P2
2023/02/06 03:00:24;;;;;;;31.37;27.87;;;2.90;99.90;;;;;;6045664;23;20201;31
2023/02/06 03:02:55;;;;;;;31.60;28.23;;;2.80;99.90;;;;;;4921233;29;20747;-76
2023/02/06 03:05:24;;;;;;;32.47;28.97;;;2.80;99.90;;;;;;4922708;29;20468;-76
2023/02/06 03:08:01;;;;;;;31.43;28.13;;;2.80;99.90;;;;;;4924961;29;20651;-75
2023/02/06 03:10:36;;;;;;;31.70;28.50;;;2.80;99.90;;;;;;4912864;29;20196;-75
2023/02/06 03:13:07;;;;;;;31.47;26.67;;;2.80;99.90;;;;;;4927515;29;20454;-76
2023/02/06 03:15:41;;;;;;;29.10;26.10;;;2.80;99.90;;;;;;4925887;29;20287;-77
2023/02/06 03:18:12;;;;;;;33.00;29.50;;;2.90;99.90;;;;;;4923644;29;20931;-79
2023/02/06 03:20:42;;;;;;;30.97;27.67;;;2.90;99.90;;;;;;4926302;29;20992;-79
2023/02/06 03:23:12;;;;;;;30.80;27.60;;;2.80;99.90;;;;;;4928526;29;20436;-79
2023/02/06 03:25:42;;;;;;;32.10;28.13;;;2.80;99.90;;;;;;4919791;29;20992;-77
2023/02/06 03:28:14;;;;;;;32.93;29.50;;;2.70;99.90;;;;;;4925045;29;20464;-76
2023/02/06 03:30:41;;;;;;;35.37;30.43;;;2.80;99.90;;;;;;4922331;29;20224;-78
2023/02/06 03:33:12;;;;;;;31.40;27.93;;;2.70;99.90;;;;;;4928962;29;20278;-79
2023/02/06 03:35:39;;;;;;;32.80;28.90;;;2.70;99.90;;;;;;4925450;29;20506;-79
2023/02/06 03:38:08;;;;;;;30.73;27.47;;;2.70;99.90;;;;;;4916582;28;20272;-75
2023/02/06 03:40:35;;;;;;;33.13;29.63;;;2.70;99.90;;;;;;4928818;29;20634;-77
2023/02/06 03:43:04;;;;;;;32.57;27.83;;;2.70;99.90;;;;;;4928960;29;20448;-76
2023/02/06 03:45:36;;;;;;;33.10;28.60;;;2.70;99.90;;;;;;4923996;29;20223;-76
2023/02/06 03:48:06;;;;;;;33.50;29.90;;;2.70;99.90;;;;;;4927900;29;20262;-76
2023/02/06 03:50:38;;;;;;;31.67;28.30;;;2.60;99.90;;;;;;4922700;29;20232;-76
2023/02/06 03:53:06;;;;;;;34.00;30.30;;;2.60;99.90;;;;;;4917509;29;20271;-81
2023/02/06 03:55:32;;;;;;;32.73;28.67;;;2.60;99.90;;;;;;4918806;29;20207;-80
2023/02/06 03:58:03;;;;;;;31.50;28.20;;;2.50;99.90;;;;;;4924966;29;20623;-81
2023/02/06 04:00:31;;;;;;;32.57;29.07;;;2.60;99.90;;;;;;4912460;29;20212;-83
2023/02/06 04:02:59;;;;;;;35.73;29.40;;;2.60;99.90;;;;;;4917390;29;20532;-82
2023/02/06 04:05:26;;;;;;;32.20;28.60;;;2.60;99.90;;;;;;4923257;29;20234;-82
2023/02/06 04:07:55;;;;;;;32.77;29.30;;;2.60;99.90;;;;;;4921868;29;20451;-82
2023/02/06 04:10:22;;;;;;;34.47;29.47;;;2.60;99.90;;;;;;4920521;29;20534;-82
2023/02/06 04:12:49;;;;;;;32.90;29.40;;;2.70;99.90;;;;;;4918012;28;20215;-81
2023/02/06 04:15:16;;;;;;;32.10;28.70;;;2.70;99.90;;;;;;4912796;29;20205;-81
2023/02/06 04:17:43;;;;;;;34.40;29.87;;;2.70;99.90;;;;;;4918766;29;20290;-81
2023/02/06 04:20:10;;;;;;;35.30;29.90;;;2.70;99.90;;;;;;4924708;29;20468;-80
2023/02/06 04:22:38;;;;;;;34.30;29.10;;;2.70;99.90;;;;;;4923244;29;20220;-81
2023/02/06 04:25:08;;;;;;;40.10;31.17;;;2.70;99.90;;;;;;4924512;29;20259;-83
2023/02/06 04:27:34;;;;;;;35.10;30.70;;;2.70;99.90;;;;;;4921047;29;20204;-82
2023/02/06 04:30:01;;;;;;;34.63;29.57;;;2.70;99.90;;;;;;4910898;29;20456;-80
2023/02/06 04:32:28;;;;;;;32.40;28.27;;;2.70;99.90;;;;;;4928477;29;20227;-77
2023/02/06 04:34:55;;;;;;;33.70;28.90;;;2.70;99.90;;;;;;4921036;29;20662;-77
2023/02/06 04:37:22;;;;;;;32.23;28.50;;;2.70;99.90;;;;;;4925272;29;20450;-76
2023/02/06 04:39:48;;;;;;;32.43;28.93;;;2.70;99.90;;;;;;4924923;29;20254;-78
2023/02/06 04:42:16;;;;;;;37.57;29.50;;;2.70;99.90;;;;;;4927036;29;20228;-76
2023/02/06 04:44:44;;;;;;;33.00;28.90;;;2.70;99.90;;;;;;4927680;29;20224;-78
2023/02/06 04:47:11;;;;;;;33.27;29.40;;;2.70;99.90;;;;;;4925693;29;20207;-76
2023/02/06 04:49:38;;;;;;;34.23;29.47;;;2.60;99.90;;;;;;4927320;29;20254;-78
2023/02/06 04:52:04;;;;;;;36.53;30.40;;;2.60;99.90;;;;;;4925556;29;20247;-79
2023/02/06 04:54:31;;;;;;;32.87;29.33;;;2.60;99.90;;;;;;4927093;29;20204;-76
2023/02/06 04:56:58;;;;;;;33.03;29.60;;;2.50;99.90;;;;;;4924933;29;20203;-76
2023/02/06 04:59:27;;;;;;;35.97;29.33;;;2.60;99.90;;;;;;4912986;28;20203;-76
2023/02/06 05:01:53;;;;;;;35.47;31.33;;;2.50;99.90;;;;;;4920160;29;20700;-76
2023/02/06 05:04:20;;;;;;;32.53;29.17;;;2.60;99.90;;;;;;4921330;29;20204;-76
2023/02/06 05:06:47;;;;;;;32.80;29.30;;;2.60;99.90;;;;;;4923746;29;20255;-79
2023/02/06 05:09:14;;;;;;;32.07;28.73;;;2.50;99.90;;;;;;4924791;29;20515;-77
2023/02/06 05:11:41;;;;;;;33.67;29.97;;;2.50;99.90;;;;;;4925044;29;20291;-76
2023/02/06 05:14:07;;;;;;;32.30;28.83;;;2.50;99.90;;;;;;4925054;29;20214;-76
2023/02/06 05:16:35;;;;;;;33.03;29.57;;;2.50;99.90;;;;;;4921978;29;20542;-76
2023/02/06 05:19:02;;;;;;;34.43;30.80;;;2.50;99.90;;;;;;4918862;29;20204;-76
2023/02/06 05:21:29;;;;;;;32.40;28.90;;;2.50;99.90;;;;;;4919498;29;20244;-76
2023/02/06 05:23:56;;;;;;;35.77;31.57;;;2.50;99.90;;;;;;4919176;29;20231;-77
2023/02/06 05:26:23;;;;;;;32.43;29.03;;;2.50;99.90;;;;;;4925229;29;20203;-76
2023/02/06 05:28:49;;;;;;;35.60;31.43;;;2.50;99.90;;;;;;4923058;29;20203;-76
2023/02/06 05:31:18;;;;;;;33.00;29.37;;;2.50;99.90;;;;;;4921501;29;20299;-76
2023/02/06 05:33:50;;;;;;;34.00;30.50;;;2.50;99.90;;;;;;4923759;29;21044;-79
2023/02/06 05:36:18;;;;;;;33.17;28.97;;;2.50;99.90;;;;;;4925412;29;20208;-79
2023/02/06 05:38:44;;;;;;;33.37;29.77;;;2.50;99.90;;;;;;4922514;29;20465;-76
2023/02/06 05:41:11;;;;;;;35.83;31.93;;;2.60;99.90;;;;;;4922643;29;20754;-77
2023/02/06 05:43:38;;;;;;;34.73;30.93;;;2.50;99.90;;;;;;4918970;29;20448;-77
2023/02/06 05:46:05;;;;;;;34.73;30.90;;;2.50;99.90;;;;;;4925042;29;20269;-77
2023/02/06 05:48:33;;;;;;;39.93;32.33;;;2.50;99.90;;;;;;4919258;29;20683;-76
2023/02/06 05:51:02;;;;;;;38.87;32.73;;;2.50;99.90;;;;;;4921008;29;20476;-79
2023/02/06 05:53:29;;;;;;;36.30;30.90;;;2.50;99.90;;;;;;4914663;29;20224;-76
2023/02/06 05:55:56;;;;;;;33.40;29.57;;;2.50;99.90;;;;;;4923618;29;20459;-77
2023/02/06 05:58:22;;;;;;;33.50;29.93;;;2.50;99.90;;;;;;4925271;29;20620;-76
2023/02/06 06:00:49;;;;;;;34.80;29.27;;;2.50;99.90;;;;;;4921692;29;20587;-76
2023/02/06 06:03:16;;;;;;;37.63;32.43;;;2.50;99.90;;;;;;4926497;29;20199;-76
2023/02/06 06:05:43;;;;;;;36.63;32.17;;;2.40;99.90;;;;;;4920971;29;20259;-76
2023/02/06 06:08:11;;;;;;;35.27;31.50;;;2.40;99.90;;;;;;4921306;29;20267;-75
2023/02/06 06:10:38;;;;;;;32.90;29.37;;;2.40;99.90;;;;;;4924453;29;20654;-76
2023/02/06 06:13:05;;;;;;;33.77;29.57;;;2.50;99.90;;;;;;4924276;29;20452;-76
2023/02/06 06:15:31;;;;;;;36.67;30.93;;;2.50;99.90;;;;;;4920070;29;20512;-77
2023/02/06 06:17:58;;;;;;;35.17;31.10;;;2.50;99.90;;;;;;4927884;29;20465;-76
2023/02/06 06:20:25;;;;;;;38.20;32.23;;;2.50;99.90;;;;;;4923064;29;20239;-76
2023/02/06 06:22:52;;;;;;;38.37;32.53;;;2.50;99.90;;;;;;4929449;29;20483;-76
2023/02/06 06:25:20;;;;;;;38.63;32.07;;;2.50;99.90;;;;;;4919491;28;20208;-78
2023/02/06 06:27:47;;;;;;;40.90;33.23;;;2.50;99.90;;;;;;4928878;29;21004;-78
2023/02/06 06:30:14;;;;;;;38.20;33.43;;;2.50;99.90;;;;;;4927336;29;20448;-76
2023/02/06 06:32:40;;;;;;;44.47;34.43;;;2.50;99.90;;;;;;4928095;29;20876;-78
2023/02/06 06:35:08;;;;;;;41.97;34.37;;;2.60;99.90;;;;;;4925933;29;20227;-75
2023/02/06 06:37:34;;;;;;;42.23;34.20;;;2.60;99.90;;;;;;4926527;29;20459;-76
2023/02/06 06:40:01;;;;;;;43.33;35.00;;;2.60;99.90;;;;;;4927699;29;20207;-76
2023/02/06 06:42:29;;;;;;;45.27;37.07;;;2.60;99.90;;;;;;4916378;29;20550;-76
2023/02/06 06:44:56;;;;;;;49.43;36.20;;;2.60;99.90;;;;;;4923342;29;20196;-76
2023/02/06 06:47:23;;;;;;;41.90;35.63;;;2.60;99.90;;;;;;4922878;29;20459;-76
2023/02/06 06:49:50;;;;;;;43.87;35.50;;;2.50;99.90;;;;;;4920528;29;20475;-77
2023/02/06 06:52:16;;;;;;;43.17;36.07;;;2.50;99.90;;;;;;4927132;29;20787;-76
2023/02/06 06:54:43;;;;;;;54.07;38.17;;;2.50;99.90;;;;;;4925850;29;20519;-76
2023/02/06 06:57:12;;;;;;;43.73;36.17;;;2.50;99.90;;;;;;4926994;29;20593;-76
2023/02/06 06:59:40;;;;;;;48.73;36.97;;;2.40;99.90;;;;;;4924607;29;20203;-79
2023/02/06 07:02:07;;;;;;;40.93;36.53;;;2.50;99.90;;;;;;4922633;29;20659;-79
2023/02/06 07:04:34;;;;;;;41.67;36.10;;;2.50;99.90;;;;;;4925932;29;20220;-78
2023/02/06 07:07:01;;;;;;;51.83;38.27;;;2.50;99.90;;;;;;4926591;29;20196;-78
2023/02/06 07:09:27;;;;;;;46.80;37.97;;;2.50;99.90;;;;;;4923184;29;20479;-78
2023/02/06 07:11:54;;;;;;;47.20;36.67;;;2.50;99.90;;;;;;4927595;29;20459;-76
2023/02/06 07:14:21;;;;;;;44.13;36.67;;;2.50;99.90;;;;;;4922651;29;20668;-76
2023/02/06 07:16:49;;;;;;;44.07;36.50;;;2.50;99.90;;;;;;4923594;29;20448;-75
2023/02/06 07:19:17;;;;;;;42.10;36.17;;;2.50;99.90;;;;;;4923003;29;20456;-76
2023/02/06 07:21:43;;;;;;;44.03;36.03;;;2.50;99.90;;;;;;4925464;29;20503;-76
2023/02/06 07:24:10;;;;;;;43.27;35.83;;;2.50;99.90;;;;;;4925476;29;20255;-76
2023/02/06 07:26:37;;;;;;;46.33;35.53;;;2.50;99.90;;;;;;4927372;29;20219;-77
2023/02/06 07:29:04;;;;;;;45.83;37.90;;;2.50;99.90;;;;;;4927995;29;20231;-78
2023/02/06 07:31:30;;;;;;;44.90;35.77;;;2.50;99.90;;;;;;4922678;29;20861;-76
2023/02/06 07:34:01;;;;;;;45.40;36.53;;;2.50;99.90;;;;;;4922596;29;20944;-76
2023/02/06 07:36:27;;;;;;;41.13;36.63;;;2.50;99.90;;;;;;4929130;29;20234;-76
2023/02/06 07:38:54;;;;;;;45.30;37.47;;;2.50;99.90;;;;;;4925869;29;20531;-77
2023/02/06 07:41:21;;;;;;;44.90;35.93;;;2.50;99.90;;;;;;4924261;29;20580;-79
2023/02/06 07:43:48;;;;;;;39.50;34.77;;;2.50;99.90;;;;;;4925204;29;20889;-77
2023/02/06 07:46:15;;;;;;;42.57;36.17;;;2.50;99.90;;;;;;4925936;29;20552;-77
2023/02/06 07:48:41;;;;;;;41.00;33.80;;;2.50;99.90;;;;;;4923304;29;20211;-82
2023/02/06 07:51:10;;;;;;;43.30;35.27;;;2.50;99.90;;;;;;4927606;29;20518;-78
2023/02/06 07:53:37;;;;;;;40.47;33.20;;;2.50;99.90;;;;;;4919471;29;20231;-79
2023/02/06 07:56:10;;;;;;;38.30;32.47;;;2.50;99.90;;;;;;4922706;29;20941;-79
2023/02/06 07:58:37;;;;;;;41.80;33.70;;;2.60;99.90;;;;;;4926066;29;20444;-78
2023/02/06 08:01:04;;;;;;;37.07;32.00;;;2.60;99.90;;;;;;4923490;29;20707;-78
2023/02/06 08:03:31;;;;;;;38.17;32.40;;;2.60;99.90;;;;;;4924107;29;21004;-79
2023/02/06 08:05:58;;;;;;;35.50;31.13;;;2.60;99.90;;;;;;4923939;29;20216;-78
2023/02/06 08:08:26;;;;;;;35.20;30.50;;;2.60;99.90;;;;;;4929364;29;20452;-79
2023/02/06 08:10:53;;;;;;;33.93;29.97;;;2.60;99.90;;;;;;4925181;29;20729;-78
2023/02/06 08:13:20;;;;;;;31.83;28.40;;;2.60;99.90;;;;;;4921116;29;20507;-79
2023/02/06 08:15:47;;;;;;;32.20;28.73;;;2.70;99.90;;;;;;4923808;29;20692;-78
2023/02/06 08:18:15;;;;;;;31.73;28.23;;;2.70;99.90;;;;;;4924251;29;20531;-78
2023/02/06 08:20:41;;;;;;;30.77;27.67;;;2.70;99.90;;;;;;4922575;29;20216;-79
2023/02/06 08:23:08;;;;;;;33.43;29.07;;;2.80;99.90;;;;;;4924516;29;20267;-78
2023/02/06 08:25:36;;;;;;;32.63;29.10;;;2.80;99.90;;;;;;4922166;29;20208;-78
2023/02/06 08:28:04;;;;;;;30.97;27.67;;;2.70;99.90;;;;;;4926272;29;20298;-79
2023/02/06 08:30:31;;;;;;;32.37;28.13;;;2.70;99.90;;;;;;4921177;29;20208;-79
2023/02/06 08:32:58;;;;;;;30.60;27.40;;;2.60;99.90;;;;;;4922059;29;20204;-81
2023/02/06 08:35:25;;;;;;;29.57;26.47;;;2.60;99.90;;;;;;4923191;29;20199;-81
2023/02/06 08:37:51;;;;;;;31.27;28.07;;;2.80;99.90;;;;;;4922324;29;20207;-82
2023/02/06 08:40:20;;;;;;;30.50;27.30;;;2.80;99.90;;;;;;4928541;29;20227;-82
2023/02/06 08:42:51;;;;;;;30.37;26.83;;;2.70;99.90;;;;;;4928329;29;20227;-82
2023/02/06 08:45:18;;;;;;;32.07;28.60;;;2.70;99.90;;;;;;4925304;29;20210;-81
2023/02/06 08:47:44;;;;;;;32.07;28.57;;;2.70;99.90;;;;;;4927553;28;20255;-80
2023/02/06 08:50:11;;;;;;;31.27;27.87;;;2.80;99.90;;;;;;4922016;29;20271;-80
2023/02/06 08:52:39;;;;;;;32.73;27.40;;;2.80;99.90;;;;;;4927268;29;21058;-81
2023/02/06 08:55:07;;;;;;;30.10;27.00;;;2.80;99.90;;;;;;4927187;29;20195;-82
2023/02/06 08:57:34;;;;;;;30.93;27.63;;;2.90;99.90;;;;;;4927494;29;20196;-81
2023/02/06 09:00:02;;;;;;;26.97;24.27;;;2.90;99.90;;;;;;4919850;29;20869;-80
2023/02/06 09:02:29;;;;;;;26.33;23.63;;;2.70;99.90;;;;;;4927362;29;20230;-82
2023/02/06 09:04:56;;;;;;;26.70;24.10;;;2.70;99.90;;;;;;4920064;29;20208;-82
2023/02/06 09:07:23;;;;;;;27.20;24.60;;;2.70;99.90;;;;;;4926847;29;20211;-81
2023/02/06 09:09:50;;;;;;;26.87;24.07;;;2.90;99.90;;;;;;4924752;29;20254;-81
2023/02/06 09:12:17;;;;;;;26.30;23.87;;;3.00;99.90;;;;;;4925141;29;20610;-77
2023/02/06 09:14:44;;;;;;;28.53;25.73;;;3.10;99.90;;;;;;4925135;29;20199;-76
2023/02/06 09:17:12;;;;;;;29.37;26.20;;;3.20;99.90;;;;;;4923778;29;20557;-77
2023/02/06 09:19:39;;;;;;;29.27;26.17;;;3.20;99.90;;;;;;4919506;29;20258;-78
2023/02/06 09:22:06;;;;;;;29.80;26.80;;;3.30;99.90;;;;;;4927109;29;20235;-77
2023/02/06 09:24:32;;;;;;;28.67;25.60;;;3.30;99.90;;;;;;4920945;29;20283;-77
2023/02/06 09:26:59;;;;;;;28.03;25.33;;;3.30;99.90;;;;;;4921036;29;20204;-77
2023/02/06 09:29:27;;;;;;;28.97;25.30;;;3.20;99.90;;;;;;4924250;29;20281;-77
2023/02/06 09:31:55;;;;;;;27.43;24.63;;;3.20;99.90;;;;;;4922722;29;20704;-77
2023/02/06 09:34:25;;;;;;;26.10;23.47;;;3.20;99.90;;;;;;4922854;29;20696;-77
2023/02/06 09:36:53;;;;;;;25.13;22.73;;;3.10;99.90;;;;;;4922743;29;20199;-76
2023/02/06 09:39:20;;;;;;;25.10;22.73;;;3.00;99.90;;;;;;4927551;29;20290;-77
2023/02/06 09:41:50;;;;;;;24.80;22.50;;;2.90;99.90;;;;;;4924084;29;20620;-78
2023/02/06 09:44:21;;;;;;;26.90;24.13;;;2.80;99.90;;;;;;4920761;29;20215;-78
2023/02/06 09:46:58;;;;;;;25.50;22.90;;;2.70;99.90;;;;;;4927440;29;20258;-82
2023/02/06 09:49:30;;;;;;;26.80;22.90;;;2.80;99.90;;;;;;4924528;29;20199;-75
2023/02/06 09:52:17;;;;;;;25.07;22.47;;;2.70;99.90;;;;;;4931548;29;20223;-77
2023/02/06 09:54:53;;;;;;;24.70;22.20;;;2.80;99.90;;;;;;4921736;29;20195;-76
2023/02/06 09:57:30;;;;;;;25.83;23.30;;;2.80;99.90;;;;;;4924606;28;20211;-77
2023/02/06 09:59:59;;;;;;;26.30;23.70;;;2.80;99.90;;;;;;4923376;29;20298;-76
2023/02/06 10:02:44;;;;;;;25.77;23.30;;;2.80;99.90;;;;;;4927204;29;20650;-78
2023/02/06 10:05:22;;;;;;;26.63;23.90;;;2.80;99.90;;;;;;4928384;29;20200;-76
2023/02/06 10:07:58;;;;;;;27.77;24.77;;;2.80;99.90;;;;;;4926509;29;20664;-77
2023/02/06 10:10:37;;;;;;;26.83;24.23;;;2.70;99.90;;;;;;4925610;29;20198;-77
2023/02/06 10:13:11;;;;;;;30.27;26.97;;;2.70;99.90;;;;;;4927222;29;20607;-76
2023/02/06 10:15:45;;;;;;;27.67;24.87;;;2.70;99.90;;;;;;4930405;29;20507;-77
2023/02/06 10:18:16;;;;;;;28.93;25.03;;;2.80;99.90;;;;;;4927486;29;20208;-77
2023/02/06 10:20:50;;;;;;;30.13;27.03;;;2.80;99.90;;;;;;4924810;29;20257;-81
2023/02/06 10:23:23;;;;;;;29.17;26.07;;;2.80;99.90;;;;;;4924235;29;20975;-77
2023/02/06 10:26:03;;;;;;;30.63;27.37;;;2.80;99.90;;;;;;4906750;29;20228;-77
2023/02/06 10:28:32;;;;;;;29.83;26.47;;;2.80;99.90;;;;;;4920477;29;20491;-77
2023/02/06 10:31:49;;;;;;;28.50;25.60;;;2.90;99.90;;;;;;4926678;29;20278;-77
2023/02/06 10:34:33;;;;;;;28.90;25.27;;;2.90;99.90;;;;;;4874163;29;20227;-77
2023/02/06 10:37:18;;;;;;;27.57;24.87;;;2.90;99.90;;;;;;4908312;29;20208;-77
2023/02/06 10:40:02;;;;;;;27.43;24.73;;;2.90;99.90;;;;;;4899931;29;20201;-77
2023/02/06 10:42:41;;;;;;;28.53;25.63;;;2.90;99.90;;;;;;4899980;29;20218;-77
2023/02/06 10:45:15;;;;;;;26.27;23.67;;;2.90;99.90;;;;;;4900464;29;20204;-77
2023/02/06 10:47:48;;;;;;;28.17;25.33;;;3.00;99.90;;;;;;4900296;29;20197;-77
2023/02/06 10:50:23;;;;;;;27.80;25.03;;;3.00;99.90;;;;;;4900013;29;20204;-77
2023/02/06 10:52:53;;;;;;;26.70;24.00;;;2.90;99.90;;;;;;4900193;29;20272;-76
2023/02/06 10:55:23;;;;;;;26.20;23.70;;;2.90;99.90;;;;;;4900310;29;20200;-77
2023/02/06 10:57:59;;;;;;;25.00;22.67;;;2.80;99.90;;;;;;4900245;29;20737;-77
2023/02/06 11:00:27;;;;;;;26.23;23.50;;;2.80;99.90;;;;;;4898757;29;20598;-77
2023/02/06 11:02:56;;;;;;;24.83;22.40;;;2.70;99.90;;;;;;4914813;29;20484;-77
2023/02/06 11:05:25;;;;;;;26.87;24.30;;;2.70;99.90;;;;;;4900023;29;20208;-76
2023/02/06 11:07:55;;;;;;;25.40;23.00;;;2.70;99.90;;;;;;4914720;29;20228;-77
2023/02/06 11:10:24;;;;;;;26.10;23.23;;;2.70;99.90;;;;;;4899709;29;20204;-77
2023/02/06 11:12:58;;;;;;;24.53;22.23;;;2.70;99.90;;;;;;4903163;29;20576;-77
2023/02/06 11:15:31;;;;;;;25.13;22.77;;;2.80;99.90;;;;;;4899127;29;20215;-78
2023/02/06 11:18:00;;;;;;;25.97;23.43;;;2.80;99.90;;;;;;4899845;29;20280;-76
2023/02/06 11:20:29;;;;;;;23.97;21.80;;;2.80;99.90;;;;;;4899062;29;20220;-77
2023/02/06 11:23:13;;;;;;;24.27;21.93;;;2.90;99.90;;;;;;4900422;29;20223;-77
2023/02/06 11:25:40;;;;;;;25.20;22.87;;;2.90;99.90;;;;;;4939046;29;20199;-77
2023/02/06 11:28:13;;;;;;;23.87;21.67;;;2.80;99.90;;;;;;4920011;29;20677;-77
2023/02/06 11:30:42;;;;;;;22.50;20.33;;;2.80;99.90;;;;;;4902214;29;20212;-78
2023/02/06 11:33:19;;;;;;;22.90;20.67;;;2.90;99.90;;;;;;4920616;29;20208;-78
2023/02/06 11:35:50;;;;;;;22.90;20.73;;;2.90;99.90;;;;;;4904045;29;20211;-77
2023/02/06 11:38:20;;;;;;;23.70;21.50;;;2.80;99.90;;;;;;4906276;29;20208;-77
2023/02/06 11:40:55;;;;;;;23.93;21.73;;;2.70;99.90;;;;;;4917795;29;20224;-77
2023/02/06 11:43:24;;;;;;;23.47;21.07;;;2.70;99.90;;;;;;4906275;29;20223;-77
2023/02/06 11:46:07;;;;;;;23.63;21.33;;;2.70;99.90;;;;;;4918738;29;20253;-78
2023/02/06 11:48:37;;;;;;;23.50;21.17;;;2.60;99.90;;;;;;4916292;28;20196;-77
2023/02/06 11:51:05;;;;;;;23.40;21.10;;;2.60;99.90;;;;;;4904159;29;20622;-77
2023/02/06 11:53:33;;;;;;;23.53;20.90;;;2.60;99.90;;;;;;4904311;29;20208;-78
2023/02/06 11:56:05;;;;;;;22.83;20.50;;;2.70;99.90;;;;;;4903984;29;20232;-76
2023/02/06 11:58:32;;;;;;;22.80;20.70;;;2.70;99.90;;;;;;4931397;29;20204;-76
2023/02/06 12:01:04;;;;;;;22.07;20.07;;;2.70;99.90;;;;;;4924858;29;20263;-76
2023/02/06 12:03:34;;;;;;;20.40;18.67;;;2.70;99.90;;;;;;4922625;29;20216;-77
2023/02/06 12:06:06;;;;;;;21.50;19.33;;;2.60;99.90;;;;;;4930129;29;20207;-79
2023/02/06 12:08:46;;;;;;;21.00;19.07;;;2.70;99.90;;;;;;4918724;29;20250;-78
2023/02/06 12:11:19;;;;;;;21.50;19.60;;;2.70;99.90;;;;;;4924377;29;20237;-78
2023/02/06 12:13:50;;;;;;;21.17;19.20;;;2.70;99.90;;;;;;4923452;29;20201;-78
2023/02/06 12:16:18;;;;;;;22.07;19.97;;;2.70;99.90;;;;;;4926848;29;20200;-78
2023/02/06 12:18:50;;;;;;;21.03;19.03;;;2.70;99.90;;;;;;4925999;29;20267;-78
2023/02/06 12:21:25;;;;;;;20.90;19.00;;;2.70;99.90;;;;;;4927738;29;20282;-78
2023/02/06 12:23:56;;;;;;;22.20;20.10;;;2.70;99.90;;;;;;4926664;29;20230;-78
2023/02/06 12:26:27;;;;;;;21.33;19.10;;;2.70;99.90;;;;;;4929474;29;20842;-78
2023/02/06 12:28:58;;;;;;;19.83;18.23;;;2.80;99.90;;;;;;4919460;29;20498;-77
2023/02/06 12:31:30;;;;;;;20.40;18.43;;;2.90;99.90;;;;;;4920738;29;20283;-78
2023/02/06 12:34:10;;;;;;;20.07;18.30;;;2.90;99.90;;;;;;4921985;29;20206;-78
2023/02/06 12:36:49;;;;;;;21.13;19.13;;;2.80;99.90;;;;;;4920791;29;20219;-78
2023/02/06 12:39:20;;;;;;;20.30;18.47;;;2.70;99.90;;;;;;4923896;29;20968;-78
2023/02/06 12:42:10;;;;;;;19.13;17.37;;;2.70;99.90;;;;;;4932283;29;20235;-77
2023/02/06 12:44:42;;;;;;;20.60;18.60;;;2.70;99.90;;;;;;4924123;29;20200;-79
2023/02/06 12:47:18;;;;;;;20.93;19.03;;;2.60;99.90;;;;;;4931371;29;20207;-77
2023/02/06 12:49:53;;;;;;;19.63;17.90;;;2.50;99.90;;;;;;4925228;29;20456;-78
2023/02/06 12:52:24;;;;;;;20.50;18.73;;;2.40;99.90;;;;;;4928192;29;20459;-78
2023/02/06 12:55:00;;;;;;;20.07;18.03;;;2.40;99.90;;;;;;4928547;29;20626;-78
2023/02/06 12:57:30;;;;;;;19.37;17.67;;;2.40;99.90;;;;;;4936090;29;20451;-78
2023/02/06 13:00:21;;;;;;;18.93;17.33;;;2.40;99.90;;;;;;4936863;29;20195;-78
2023/02/06 13:03:18;;;;;;;17.57;16.17;;;2.50;99.90;;;;;;4935763;29;21008;-78
2023/02/06 13:05:48;;;;;;;17.47;16.07;;;2.50;99.90;;;;;;4935647;29;20447;-78
2023/02/06 13:08:19;;;;;;;18.70;17.10;;;2.60;99.90;;;;;;4935910;29;20960;-78
2023/02/06 13:10:50;;;;;;;18.43;16.93;;;2.60;99.90;;;;;;4935955;29;20279;-78
2023/02/06 13:13:28;;;;;;;17.47;16.03;;;2.70;99.90;;;;;;4936348;29;20202;-79
2023/02/06 13:15:59;;;;;;;16.30;14.97;;;2.80;99.90;;;;;;4935033;29;20549;-80
2023/02/06 13:18:51;;;;;;;16.27;14.97;;;2.70;99.90;;;;;;4925718;29;20209;-80
2023/02/06 13:21:23;;;;;;;16.83;15.50;;;2.70;99.90;;;;;;4921128;29;20731;-80
2023/02/06 13:24:05;;;;;;;16.37;15.07;;;2.60;99.90;;;;;;4926645;29;20368;-78
2023/02/06 13:27:09;;;;;;;15.80;14.57;;;2.50;99.90;;;;;;4915886;29;20211;-78
2023/02/06 13:29:40;;;;;;;14.57;13.47;;;2.70;99.90;;;;;;4916053;29;20199;-78
2023/02/06 13:32:47;;;;;;;15.30;14.13;;;2.70;99.90;;;;;;4920621;29;20224;-77
2023/02/06 13:35:26;;;;;;;15.17;13.97;;;2.80;99.90;;;;;;4916538;28;20259;-78
2023/02/06 13:38:29;;;;;;;15.67;14.47;;;2.70;99.90;;;;;;4917992;29;20207;-79
2023/02/06 13:41:27;;;;;;;15.43;14.17;;;2.80;99.90;;;;;;4915419;29;20231;-77
2023/02/06 13:43:58;;;;;;;15.13;13.93;;;2.80;99.90;;;;;;4858632;29;20237;-82
2023/02/06 13:46:40;;;;;;;15.60;14.23;;;2.70;99.90;;;;;;4907127;29;20728;-78
2023/02/06 13:49:36;;;;;;;15.87;14.67;;;2.70;99.90;;;;;;4917170;29;20676;-79
2023/02/06 13:52:08;;;;;;;16.00;14.50;;;2.60;99.90;;;;;;4923913;29;20228;-78
2023/02/06 13:54:58;;;;;;;16.10;14.53;;;2.50;99.90;;;;;;4926629;29;21036;-79
2023/02/06 13:57:57;;;;;;;15.07;13.87;;;2.50;99.90;;;;;;4927255;29;20431;-80
2023/02/06 14:00:27;;;;;;;15.23;14.10;;;2.50;99.90;;;;;;4926428;29;20187;-80
2023/02/06 14:03:04;;;;;;;15.57;14.40;;;2.60;99.90;;;;;;4924095;29;20466;-83
2023/02/06 14:05:42;;;;;;;15.50;14.27;;;2.60;99.90;;;;;;4905061;29;20202;-83
2023/02/06 14:08:19;;;;;;;16.47;15.27;;;2.60;99.90;;;;;;4927749;29;20552;-81
2023/02/06 14:11:21;;;;;;;15.73;14.27;;;2.50;99.90;;;;;;4924136;29;20228;-81
2023/02/06 14:14:01;;;;;;;15.93;14.63;;;2.50;99.90;;;;;;4914733;29;20451;-80
2023/02/06 14:16:38;;;;;;;16.50;15.10;;;2.30;99.90;;;;;;4914753;29;20208;-80
2023/02/06 14:19:17;;;;;;;16.10;14.70;;;2.40;99.90;;;;;;4920266;29;20200;-79
2023/02/06 14:21:49;;;;;;;16.90;15.50;;;2.40;99.90;;;;;;4933165;29;20469;-80
2023/02/06 14:24:35;;;;;;;16.33;15.13;;;2.40;99.90;;;;;;4925405;29;20219;-81
2023/02/06 14:27:19;;;;;;;16.53;15.13;;;2.30;99.90;;;;;;4930674;29;20317;-80
2023/02/06 14:29:57;;;;;;;17.07;15.57;;;2.30;99.90;;;;;;4924156;29;20215;-81
2023/02/06 14:32:37;;;;;;;18.20;16.37;;;2.20;99.90;;;;;;4931102;29;20220;-82
2023/02/06 14:35:34;;;;;;;17.77;16.07;;;2.20;99.90;;;;;;4923543;29;20227;-84
2023/02/06 14:38:30;;;;;;;17.17;15.73;;;2.20;99.90;;;;;;4928165;29;20553;-83
2023/02/06 14:41:00;;;;;;;16.63;15.43;;;2.10;99.90;;;;;;4921782;29;20230;-82
2023/02/06 14:43:31;;;;;;;17.23;15.63;;;2.10;99.90;;;;;;4913546;29;20503;-83
2023/02/06 14:46:02;;;;;;;16.37;15.07;;;2.20;99.90;;;;;;4918191;29;20456;-84
2023/02/06 14:48:35;;;;;;;16.30;14.80;;;2.20;99.90;;;;;;4918940;29;20502;-83
2023/02/06 14:51:05;;;;;;;15.50;14.40;;;2.10;99.90;;;;;;4927990;29;20223;-83
2023/02/06 14:53:37;;;;;;;17.00;15.60;;;2.20;99.90;;;;;;4921838;29;20436;-83
2023/02/06 14:56:11;;;;;;;16.47;15.17;;;2.20;99.90;;;;;;4936390;29;20803;-84
2023/02/06 14:58:38;;;;;;;16.40;15.03;;;2.20;99.90;;;;;;4925284;29;20450;-82
2023/02/06 15:01:18;;;;;;;17.37;15.87;;;2.20;99.90;;;;;;4928635;28;21013;-84
2023/02/06 15:03:47;;;;;;;16.67;15.27;;;2.20;99.90;;;;;;4925899;29;20775;-80
2023/02/06 15:06:30;;;;;;;15.77;14.60;;;2.20;99.90;;;;;;4923171;29;20969;-81
2023/02/06 15:08:57;;;;;;;15.87;14.50;;;2.30;99.90;;;;;;4919194;28;20263;-79
2023/02/06 15:11:31;;;;;;;15.90;14.60;;;2.30;99.90;;;;;;4916237;29;20243;-79
2023/02/06 15:14:00;;;;;;;16.20;14.97;;;2.30;99.90;;;;;;4925918;29;20626;-79
2023/02/06 15:16:29;;;;;;;15.60;14.50;;;2.30;99.90;;;;;;4928699;29;20942;-78
2023/02/06 15:19:10;;;;;;;16.53;15.27;;;2.30;99.90;;;;;;4929207;29;20542;-78
2023/02/06 15:21:41;;;;;;;17.83;16.23;;;2.40;99.90;;;;;;4918017;29;20459;-79
2023/02/06 15:24:26;;;;;;;17.27;15.77;;;2.40;99.90;;;;;;4928531;29;20518;-79
2023/02/06 15:27:00;;;;;;;17.13;15.63;;;2.30;99.90;;;;;;4929204;29;20715;-78
2023/02/06 15:29:27;;;;;;;17.30;15.80;;;2.40;99.90;;;;;;4926424;29;20446;-79
2023/02/06 15:31:56;;;;;;;17.70;16.30;;;2.30;99.90;;;;;;4929303;29;20530;-78
2023/02/06 15:34:24;;;;;;;16.50;15.20;;;2.30;99.90;;;;;;4925612;29;20274;-79
2023/02/06 15:36:53;;;;;;;16.27;14.93;;;2.30;99.90;;;;;;4928480;29;20482;-81
2023/02/06 15:39:20;;;;;;;16.53;15.13;;;2.30;99.90;;;;;;4928829;29;20820;-80
2023/02/06 15:41:51;;;;;;;16.83;15.53;;;2.30;99.90;;;;;;4927953;29;20318;-80
2023/02/06 15:44:24;;;;;;;17.13;15.83;;;2.30;99.90;;;;;;4917810;28;20225;-82
2023/02/06 15:46:52;;;;;;;17.03;15.67;;;2.30;99.90;;;;;;4926217;28;20212;-84
2023/02/06 15:49:31;;;;;;;15.90;14.50;;;2.30;99.90;;;;;;4930487;28;20259;-82
2023/02/06 15:52:00;;;;;;;17.37;15.80;;;2.30;99.90;;;;;;4930418;29;20517;-84
2023/02/06 15:54:28;;;;;;;17.43;16.03;;;2.30;99.90;;;;;;4928576;29;20649;-83
2023/02/06 15:57:01;;;;;;;17.07;15.57;;;2.30;99.90;;;;;;4929824;29;20279;-84